createdAt,value
2023-04-01T00:00:45.230Z,18.83
2023-04-01T00:01:47.233Z,25.55
2023-04-01T00:02:49.447Z,21.23
2023-04-01T00:03:51.845Z,21.30
2023-04-01T00:04:54.041Z,22.13
2023-04-01T00:05:57.438Z,26.85
2023-04-01T00:07:00.568Z,23.17
2023-04-01T00:08:02.565Z,21.83
2023-04-01T00:09:04.679Z,19.38
2023-04-01T00:10:09.737Z,20.77
2023-04-01T00:11:52.423Z,21.45
2023-04-01T00:12:54.449Z,19.23
2023-04-01T00:13:56.659Z,19.77
2023-04-01T00:14:58.735Z,23.37
2023-04-01T00:16:03.413Z,21.20
2023-04-01T00:17:06.130Z,24.48
2023-04-01T00:18:08.466Z,19.35
2023-04-01T00:19:10.882Z,17.10
2023-04-01T00:20:13.564Z,18.98
2023-04-01T00:21:16.319Z,23.63
2023-04-01T00:22:18.354Z,19.42
2023-04-01T00:23:21.668Z,20.42
2023-04-01T00:24:23.731Z,21.95
2023-04-01T00:25:26.128Z,20.33
2023-04-01T00:26:28.206Z,19.20
2023-04-01T00:27:30.270Z,19.98
2023-04-01T00:28:32.467Z,22.83
2023-04-01T00:29:34.942Z,23.15
2023-04-01T00:30:38.034Z,20.52
2023-04-01T00:31:40.336Z,23.35
2023-04-01T00:32:42.729Z,23.50
2023-04-01T00:33:44.877Z,21.25
2023-04-01T00:34:46.953Z,25.52
2023-04-01T00:35:49.007Z,20.50
2023-04-01T00:36:53.241Z,24.23
2023-04-01T00:37:56.091Z,21.52
2023-04-01T00:39:00.204Z,24.08
2023-04-01T00:40:02.323Z,25.17
2023-04-01T00:41:05.624Z,22.80
2023-04-01T00:42:07.656Z,19.48
2023-04-01T00:43:16.195Z,21.70
2023-04-01T00:44:26.834Z,26.25
2023-04-01T00:45:36.220Z,19.02
2023-04-01T00:46:38.629Z,23.90
2023-04-01T00:47:40.914Z,22.38
2023-04-01T00:48:50.856Z,27.77
2023-04-01T00:49:55.623Z,21.33
2023-04-01T00:51:08.474Z,18.02
2023-04-01T00:52:15.027Z,20.70
2023-04-01T00:53:20.530Z,20.10
2023-04-01T00:54:25.512Z,25.00
2023-04-01T00:55:31.972Z,21.40
2023-04-01T00:56:39.284Z,18.50
2023-04-01T00:57:42.886Z,20.57
2023-04-01T00:58:50.419Z,18.08
2023-04-01T00:59:54.991Z,22.42
2023-04-01T01:01:00.376Z,26.10
2023-04-01T01:02:04.544Z,23.23
2023-04-01T01:03:06.614Z,23.48
2023-04-01T01:04:21.513Z,22.92
2023-04-01T01:05:49.635Z,18.83
2023-04-01T01:07:07.233Z,19.58
2023-04-01T01:08:32.416Z,22.83
2023-04-01T01:09:52.824Z,20.60
2023-04-01T01:10:55.062Z,22.27
2023-04-01T01:12:12.116Z,25.17
2023-04-01T01:13:54.468Z,15.48
2023-04-01T01:15:21.419Z,18.27
2023-04-01T01:16:29.575Z,20.65
2023-04-01T01:17:49.035Z,21.85
2023-04-01T01:18:55.632Z,16.10
2023-04-01T01:20:03.066Z,19.00
2023-04-01T01:21:33.020Z,20.75
2023-04-01T01:22:53.319Z,20.57
2023-04-01T01:24:13.857Z,19.20
2023-04-01T01:25:31.045Z,25.23
2023-04-01T01:26:52.296Z,18.10
2023-04-01T01:28:04.244Z,18.60
2023-04-01T01:29:06.495Z,22.27
2023-04-01T01:30:08.908Z,22.95
2023-04-01T01:31:26.569Z,18.00
2023-04-01T01:33:12.682Z,17.70
2023-04-01T01:34:23.692Z,16.30
2023-04-01T01:35:28.558Z,18.03
2023-04-01T01:36:36.920Z,20.65
2023-04-01T01:37:43.046Z,21.73
2023-04-01T01:38:47.010Z,17.63
2023-04-01T01:39:57.178Z,26.58
2023-04-01T01:41:03.893Z,18.85
2023-04-01T01:42:11.175Z,18.65
2023-04-01T01:43:18.474Z,19.65
2023-04-01T01:44:22.452Z,24.77
2023-04-01T01:45:27.154Z,17.20
2023-04-01T01:46:31.959Z,16.10
2023-04-01T01:47:36.598Z,17.25
2023-04-01T01:48:41.909Z,16.30
2023-04-01T01:49:46.039Z,19.27
2023-04-01T01:50:49.911Z,19.20
2023-04-01T01:51:52.430Z,20.25
2023-04-01T01:53:11.211Z,19.40
2023-04-01T01:54:19.114Z,17.17
2023-04-01T01:55:34.141Z,18.33
2023-04-01T01:56:37.439Z,15.80
2023-04-01T01:57:40.813Z,18.07
2023-04-01T01:58:54.056Z,16.67
2023-04-01T02:00:09.239Z,23.65
2023-04-01T02:01:24.702Z,18.33
2023-04-01T02:02:28.466Z,20.42
2023-04-01T02:03:35.508Z,16.42
2023-04-01T02:04:40.667Z,18.83
2023-04-01T02:05:43.428Z,18.95
2023-04-01T02:06:56.921Z,19.10
2023-04-01T02:08:07.617Z,13.75
2023-04-01T02:09:11.786Z,22.67
2023-04-01T02:10:15.164Z,18.98
2023-04-01T02:11:22.638Z,20.73
2023-04-01T02:12:27.424Z,21.30
2023-04-01T02:13:37.778Z,16.80
2023-04-01T02:14:51.744Z,23.27
2023-04-01T02:16:00.073Z,15.63
2023-04-01T02:17:16.635Z,22.88
2023-04-01T02:18:20.909Z,21.33
2023-04-01T02:19:28.092Z,18.75
2023-04-01T02:20:30.845Z,16.07
2023-04-01T02:21:34.289Z,18.05
2023-04-01T02:22:42.583Z,15.10
2023-04-01T02:23:46.093Z,18.52
2023-04-01T02:24:50.556Z,17.83
2023-04-01T02:25:52.690Z,21.30
2023-04-01T02:26:55.005Z,14.52
2023-04-01T02:27:59.993Z,20.23
2023-04-01T02:29:04.898Z,17.23
2023-04-01T02:30:08.412Z,16.08
2023-04-01T02:31:12.154Z,17.77
2023-04-01T02:32:15.561Z,17.58
2023-04-01T02:33:20.041Z,24.35
2023-04-01T02:34:24.359Z,19.52
2023-04-01T02:35:27.552Z,19.73
2023-04-01T02:36:30.160Z,18.08
2023-04-01T02:37:33.900Z,19.60
2023-04-01T02:38:37.374Z,20.67
2023-04-01T02:39:39.536Z,19.05
2023-04-01T02:40:50.609Z,21.65
2023-04-01T02:41:52.939Z,22.20
2023-04-01T02:42:54.982Z,21.60
2023-04-01T02:43:59.506Z,21.90
2023-04-01T02:45:01.558Z,22.85
2023-04-01T02:46:03.857Z,22.25
2023-04-01T02:47:06.218Z,16.80
2023-04-01T02:48:08.496Z,21.20
2023-04-01T02:49:11.015Z,23.08
2023-04-01T02:50:13.069Z,19.70
2023-04-01T02:51:17.297Z,20.00
2023-04-01T02:52:22.986Z,19.70
2023-04-01T02:53:26.225Z,19.73
2023-04-01T02:54:28.189Z,21.63
2023-04-01T02:55:31.533Z,18.67
2023-04-01T02:56:33.838Z,24.02
2023-04-01T02:57:36.036Z,21.70
2023-04-01T02:58:39.324Z,18.52
2023-04-01T02:59:41.296Z,23.08
2023-04-01T03:00:43.339Z,24.17
2023-04-01T03:01:45.455Z,21.92
2023-04-01T03:02:47.624Z,19.47
2023-04-01T03:03:49.930Z,19.30
2023-04-01T03:04:52.027Z,20.95
2023-04-01T03:05:56.952Z,23.13
2023-04-01T03:06:59.179Z,19.10
2023-04-01T03:08:01.470Z,18.77
2023-04-01T03:09:04.407Z,18.98
2023-04-01T03:10:08.609Z,17.38
2023-04-01T03:11:11.716Z,20.50
2023-04-01T03:12:14.150Z,17.17
2023-04-01T03:13:24.979Z,19.20
2023-04-01T03:14:39.252Z,19.88
2023-04-01T03:15:41.501Z,23.42
2023-04-01T03:16:43.654Z,18.42
2023-04-01T03:17:47.768Z,21.02
2023-04-01T03:21:23.613Z,26.58
2023-04-01T03:22:25.726Z,19.65
2023-04-01T03:23:27.768Z,19.42
2023-04-01T03:24:29.810Z,21.02
2023-04-01T03:25:32.042Z,18.40
2023-04-01T03:26:34.607Z,18.17
2023-04-01T03:27:36.959Z,19.05
2023-04-01T03:28:39.212Z,19.40
2023-04-01T03:29:41.304Z,20.70
2023-04-01T03:30:44.114Z,16.45
2023-04-01T03:31:46.493Z,21.38
2023-04-01T03:32:48.541Z,19.48
2023-04-01T03:33:50.783Z,20.15
2023-04-01T03:34:52.798Z,20.98
2023-04-01T03:35:55.443Z,23.13
2023-04-01T03:36:57.627Z,18.42
2023-04-01T03:37:59.967Z,21.45
2023-04-01T03:39:02.188Z,21.95
2023-04-01T03:40:12.663Z,19.08
2023-04-01T03:41:18.516Z,20.63
2023-04-01T03:42:21.350Z,18.33
2023-04-01T03:43:23.984Z,21.60
2023-04-01T03:44:26.144Z,28.02
2023-04-01T03:45:29.538Z,17.55
2023-04-01T03:46:31.681Z,20.93
2023-04-01T03:47:33.960Z,20.67
2023-04-01T03:48:36.158Z,20.27
2023-04-01T03:49:38.336Z,21.52
2023-04-01T03:50:40.376Z,16.88
2023-04-01T03:51:43.893Z,19.45
2023-04-01T03:52:46.208Z,23.63
2023-04-01T03:53:49.408Z,17.58
2023-04-01T03:54:52.226Z,23.20
2023-04-01T03:55:54.787Z,23.17
2023-04-01T03:56:58.965Z,24.00
2023-04-01T03:58:03.069Z,24.17
2023-04-01T03:59:09.440Z,24.33
2023-04-01T04:00:12.199Z,25.67
2023-04-01T04:01:22.022Z,24.85
2023-04-01T04:02:26.629Z,21.00
2023-04-01T04:03:29.288Z,23.27
2023-04-01T04:04:31.976Z,22.00
2023-04-01T04:05:34.686Z,20.95
2023-04-01T04:06:37.687Z,23.30
2023-04-01T04:07:39.852Z,28.77
2023-04-01T04:08:44.389Z,22.27
2023-04-01T04:09:46.886Z,19.75
2023-04-01T04:10:55.375Z,31.40
2023-04-01T04:11:57.591Z,20.00
2023-04-01T04:12:59.679Z,20.83
2023-04-01T04:14:04.786Z,21.60
2023-04-01T04:15:07.411Z,23.90
2023-04-01T04:16:10.961Z,24.45
2023-04-01T04:17:17.294Z,26.77
2023-04-01T04:18:19.797Z,24.57
2023-04-01T04:19:21.957Z,20.75
2023-04-01T04:20:24.054Z,25.48
2023-04-01T04:21:26.087Z,25.08
2023-04-01T04:22:28.119Z,27.85
2023-04-01T04:23:31.523Z,19.45
2023-04-01T04:24:36.135Z,24.05
2023-04-01T04:25:55.483Z,25.13
2023-04-01T04:26:57.545Z,19.75
2023-04-01T04:27:59.623Z,18.48
2023-04-01T04:29:02.363Z,19.07
2023-04-01T04:30:06.443Z,20.63
2023-04-01T04:31:09.097Z,23.42
2023-04-01T04:32:11.780Z,21.70
2023-04-01T04:35:39.333Z,20.50
2023-04-01T04:36:41.441Z,22.88
2023-04-01T04:37:43.760Z,21.08
2023-04-01T04:50:43.827Z,22.20
2023-04-01T04:52:13.837Z,22.55
2023-04-01T04:53:29.650Z,25.27
2023-04-01T04:54:51.818Z,27.17
2023-04-01T04:56:02.873Z,19.67
2023-04-01T04:57:32.936Z,21.45
2023-04-01T04:58:41.628Z,16.65
2023-04-01T05:00:07.892Z,19.90
2023-04-01T05:01:31.517Z,20.95
2023-04-01T05:02:46.275Z,21.83
2023-04-01T05:04:00.895Z,25.77
2023-04-01T05:05:29.829Z,19.17
2023-04-01T05:06:59.945Z,20.83
2023-04-01T05:08:29.911Z,18.40
2023-04-01T05:09:46.807Z,17.38
2023-04-01T05:11:09.816Z,19.10
2023-04-01T05:12:20.924Z,21.58
2023-04-01T05:13:44.008Z,19.88
2023-04-01T05:14:58.967Z,21.00
2023-04-01T05:16:31.947Z,20.45
2023-04-01T05:17:48.066Z,16.10
2023-04-01T05:19:09.931Z,21.65
2023-04-01T05:20:18.795Z,21.53
2023-04-01T05:21:41.899Z,17.52
2023-04-01T05:23:12.888Z,21.45
2023-04-01T05:24:28.548Z,18.55
2023-04-01T05:25:46.472Z,20.88
2023-04-01T05:27:02.897Z,17.00
2023-04-01T05:28:11.754Z,21.25
2023-04-01T05:29:29.053Z,21.20
2023-04-01T05:30:48.966Z,19.98
2023-04-01T05:32:12.036Z,19.63
2023-04-01T05:33:26.944Z,18.40
2023-04-01T05:34:49.005Z,23.17
2023-04-01T05:36:13.026Z,26.17
2023-04-01T05:37:41.949Z,22.05
2023-04-01T05:39:10.966Z,17.05
2023-04-01T05:40:39.950Z,20.55
2023-04-01T05:41:55.659Z,20.70
2023-04-01T05:43:16.989Z,23.40
2023-04-01T05:44:28.615Z,20.48
2023-04-01T05:45:56.078Z,21.38
2023-04-01T05:47:20.679Z,20.73
2023-04-01T05:48:35.980Z,17.17
2023-04-01T05:50:05.084Z,25.75
2023-04-01T05:51:27.140Z,20.83
2023-04-01T05:52:43.002Z,16.98
2023-04-01T05:54:13.070Z,22.42
2023-04-01T05:55:41.987Z,14.40
2023-04-01T05:57:04.094Z,17.95
2023-04-01T05:58:13.129Z,26.50
2023-04-01T05:59:38.966Z,19.50
2023-04-01T06:00:47.934Z,17.27
2023-04-01T06:02:10.019Z,22.30
2023-04-01T06:03:19.260Z,22.45
2023-04-01T06:04:46.089Z,15.80
2023-04-01T06:05:55.363Z,19.80
2023-04-01T06:07:25.029Z,18.10
2023-04-01T06:08:40.227Z,19.27
2023-04-01T06:09:55.033Z,20.58
2023-04-01T06:11:24.167Z,17.05
2023-04-01T06:13:09.031Z,14.55
2023-04-01T06:14:26.200Z,23.90
2023-04-01T06:16:02.092Z,18.60
2023-04-01T06:17:30.388Z,12.05
2023-04-01T06:19:13.164Z,14.45
2023-04-01T06:20:57.194Z,17.20
2023-04-01T06:22:17.499Z,18.73
2023-04-01T06:23:52.040Z,16.25
2023-04-01T06:25:19.189Z,18.20
2023-04-01T06:26:54.099Z,19.60
2023-04-01T06:28:53.268Z,13.50
2023-04-01T06:30:43.043Z,18.00
2023-04-01T06:32:20.214Z,19.55
2023-04-01T06:34:31.102Z,13.48
2023-04-01T06:36:03.195Z,14.43
2023-04-01T06:37:34.355Z,16.10
2023-04-01T06:39:30.046Z,16.67
2023-04-01T06:41:16.560Z,19.83
2023-04-01T06:42:59.111Z,15.45
2023-04-01T06:44:56.510Z,15.38
2023-04-01T06:47:12.253Z,11.95
2023-04-01T06:49:13.489Z,13.97
2023-04-01T06:51:00.153Z,10.88
2023-04-01T06:53:24.144Z,18.60
2023-04-01T06:55:32.289Z,14.45
2023-04-01T06:57:33.110Z,13.93
2023-04-01T06:59:08.100Z,12.90
2023-04-01T07:00:31.619Z,15.60
2023-04-01T07:02:11.277Z,20.98
2023-04-01T07:03:42.347Z,12.60
2023-04-01T07:05:08.170Z,14.68
2023-04-01T07:06:28.717Z,13.53
2023-04-01T07:07:59.185Z,10.07
2023-04-01T07:09:17.425Z,20.17
2023-04-01T07:11:05.374Z,21.23
2023-04-01T07:12:32.838Z,13.32
2023-04-01T07:14:32.180Z,11.25
2023-04-01T07:15:44.555Z,19.75
2023-04-01T07:17:11.272Z,12.43
2023-04-01T07:18:29.552Z,15.23
2023-04-01T07:19:54.681Z,20.67
2023-04-01T07:21:10.219Z,18.77
2023-04-01T07:23:17.288Z,16.85
2023-04-01T07:25:00.254Z,15.68
2023-04-01T07:26:25.527Z,18.67
2023-04-01T07:27:36.786Z,14.10
2023-04-01T07:28:38.866Z,14.88
2023-04-01T07:30:21.355Z,13.80
2023-04-01T07:31:32.122Z,12.10
2023-04-01T07:32:37.006Z,11.98
2023-04-01T07:34:05.897Z,15.82
2023-04-01T07:35:36.401Z,12.30
2023-04-01T07:37:23.108Z,13.15
2023-04-01T07:39:11.005Z,15.18
2023-04-01T07:41:13.970Z,10.80
2023-04-01T07:42:57.123Z,11.52
2023-04-01T07:44:17.792Z,16.13
2023-04-01T07:45:43.205Z,15.85
2023-04-01T07:47:00.378Z,14.05
2023-04-01T07:48:20.706Z,17.58
2023-04-01T07:49:52.163Z,16.70
2023-04-01T07:51:24.136Z,15.10
2023-04-01T07:52:43.147Z,16.70
2023-04-01T07:54:19.821Z,14.35
2023-04-01T07:55:34.435Z,18.27
2023-04-01T07:57:09.495Z,14.73
2023-04-01T07:59:03.587Z,12.95
2023-04-01T08:00:33.454Z,18.63
2023-04-01T08:01:49.832Z,14.95
2023-04-01T08:03:16.338Z,14.23
2023-04-01T08:04:43.772Z,15.05
2023-04-01T08:06:13.850Z,18.17
2023-04-01T08:07:21.640Z,12.40
2023-04-01T08:08:58.495Z,16.30
2023-04-01T08:10:47.089Z,18.92
2023-04-01T08:12:27.718Z,17.20
2023-04-01T08:14:00.313Z,14.02
2023-04-01T08:15:28.399Z,17.67
2023-04-01T08:17:14.505Z,12.90
2023-04-01T08:18:32.001Z,16.17
2023-04-01T08:20:11.520Z,15.98
2023-04-01T08:21:22.276Z,16.43
2023-04-01T08:22:46.302Z,16.30
2023-04-01T08:24:01.430Z,14.52
2023-04-01T08:25:08.885Z,16.58
2023-04-01T08:26:24.319Z,14.82
2023-04-01T08:27:38.650Z,15.00
2023-04-01T08:28:45.782Z,14.38
2023-04-01T08:30:02.626Z,13.45
2023-04-01T08:31:33.630Z,15.25
2023-04-01T08:32:44.012Z,13.93
2023-04-01T08:33:50.494Z,11.80
2023-04-01T08:35:08.165Z,12.88
2023-04-01T08:36:22.727Z,15.30
2023-04-01T08:37:39.615Z,12.25
2023-04-01T08:39:14.601Z,18.63
2023-04-01T08:40:36.777Z,17.30
2023-04-01T08:41:50.701Z,20.08
2023-04-01T08:43:40.786Z,19.55
2023-04-01T08:45:01.593Z,11.45
2023-04-01T08:46:16.282Z,13.00
2023-04-01T08:47:25.706Z,15.20
2023-04-01T08:48:33.895Z,14.48
2023-04-01T08:49:56.135Z,15.57
2023-04-01T08:51:18.224Z,14.55
2023-04-01T08:52:35.356Z,15.43
2023-04-01T08:54:02.441Z,19.35
2023-04-01T08:55:23.690Z,13.00
2023-04-01T08:56:58.425Z,15.93
2023-04-01T08:58:29.559Z,19.23
2023-04-01T08:59:56.411Z,15.30
2023-04-01T09:01:22.682Z,15.43
2023-04-01T09:02:52.468Z,15.32
2023-04-01T09:04:08.975Z,17.45
2023-04-01T09:05:27.861Z,16.20
2023-04-01T09:07:07.064Z,15.27
2023-04-01T09:08:30.699Z,14.48
2023-04-01T09:09:48.357Z,14.40
2023-04-01T09:11:11.847Z,19.00
2023-04-01T09:12:53.414Z,14.25
2023-04-01T09:14:16.663Z,14.85
2023-04-01T09:15:38.744Z,17.30
2023-04-01T09:17:43.155Z,15.80
2023-04-01T09:18:50.876Z,13.32
2023-04-01T09:20:11.395Z,17.75
2023-04-01T09:21:28.458Z,16.33
2023-04-01T09:23:20.066Z,13.98
2023-04-01T09:24:36.362Z,15.15
2023-04-01T09:26:08.090Z,14.50
2023-04-01T09:30:33.041Z,14.20
2023-04-01T09:31:44.183Z,17.97
2023-04-01T09:33:34.284Z,16.38
2023-04-01T09:34:54.407Z,13.95
2023-04-01T09:36:00.554Z,11.93
2023-04-01T09:37:35.032Z,13.27
2023-04-01T09:39:08.675Z,15.05
2023-04-01T09:40:39.102Z,13.32
2023-04-01T09:41:49.900Z,15.93
2023-04-01T09:43:10.928Z,12.43
2023-04-01T09:44:37.847Z,12.05
2023-04-01T09:46:03.523Z,10.00
2023-04-01T09:47:28.098Z,10.93
2023-04-01T09:48:55.863Z,11.05
2023-04-01T09:50:19.330Z,15.82
2023-04-01T09:51:24.266Z,8.95
2023-04-01T09:52:47.891Z,13.98
2023-04-01T09:54:14.076Z,9.32
2023-04-01T09:55:16.113Z,9.63
2023-04-01T09:56:24.207Z,11.73
2023-04-01T09:58:01.032Z,8.98
2023-04-01T09:59:53.455Z,9.97
2023-04-01T10:01:26.703Z,11.70
2023-04-01T10:03:01.023Z,9.55
2023-04-01T10:04:42.054Z,11.95
2023-04-01T10:06:21.683Z,10.07
2023-04-01T10:07:45.008Z,10.77
2023-04-01T10:09:02.693Z,11.30
2023-04-01T10:10:17.386Z,13.25
2023-04-01T10:11:45.112Z,9.45
2023-04-01T10:12:56.485Z,12.55
2023-04-01T10:13:58.912Z,10.57
2023-04-01T10:15:21.840Z,11.38
2023-04-01T10:17:11.667Z,9.07
2023-04-01T10:18:31.260Z,9.38
2023-04-01T10:20:15.887Z,9.55
2023-04-01T10:21:26.731Z,9.32
2023-04-01T10:22:47.205Z,9.57
2023-04-01T10:24:23.603Z,9.82
2023-04-01T10:25:34.453Z,9.82
2023-04-01T10:27:11.332Z,8.80
2023-04-01T10:28:56.733Z,9.60
2023-04-01T10:30:48.443Z,11.27
2023-04-01T10:32:15.480Z,10.65
2023-04-01T10:33:33.650Z,11.25
2023-04-01T10:35:09.188Z,10.98
2023-04-01T10:36:57.981Z,8.88
2023-04-01T10:38:35.823Z,14.55
2023-04-01T10:40:15.227Z,11.23
2023-04-01T10:41:55.992Z,10.18
2023-04-01T10:44:05.774Z,9.57
2023-04-01T10:45:33.841Z,13.03
2023-04-01T10:47:04.827Z,9.70
2023-04-01T10:48:24.017Z,10.55
2023-04-01T10:49:36.736Z,9.55
2023-04-01T10:51:07.396Z,13.43
2023-04-01T10:52:37.082Z,11.35
2023-04-01T10:54:10.086Z,11.32
2023-04-01T10:55:41.890Z,12.35
2023-04-01T10:57:25.883Z,13.20
2023-04-01T10:59:10.051Z,12.32
2023-04-01T11:00:53.276Z,11.00
2023-04-01T11:02:51.348Z,11.48
2023-04-01T11:04:30.142Z,11.07
2023-04-01T11:06:20.555Z,10.60
2023-04-01T11:07:55.790Z,9.70
2023-04-01T11:09:38.835Z,15.77
2023-04-01T11:11:02.260Z,11.75
2023-04-01T11:12:15.776Z,11.57
2023-04-01T11:13:32.719Z,12.10
2023-04-01T11:15:04.091Z,13.40
2023-04-01T11:16:06.867Z,10.17
2023-04-01T11:17:28.462Z,12.55
2023-04-01T11:18:48.344Z,10.10
2023-04-01T11:20:14.418Z,9.32
2023-04-01T11:22:10.452Z,9.38
2023-04-01T11:23:58.370Z,13.40
2023-04-01T11:25:29.954Z,9.90
2023-04-01T11:27:02.503Z,10.93
2023-04-01T11:28:45.446Z,11.15
2023-04-01T11:30:07.219Z,9.32
2023-04-01T11:31:28.066Z,12.17
2023-04-01T11:32:43.291Z,14.43
2023-04-01T11:33:59.046Z,9.50
2023-04-01T11:35:44.156Z,10.77
2023-04-01T11:37:05.583Z,9.63
2023-04-01T11:38:30.142Z,12.13
2023-04-01T11:40:07.158Z,9.27
2023-04-01T11:41:39.169Z,11.10
2023-04-01T11:42:59.483Z,12.02
2023-04-01T11:44:28.298Z,9.55
2023-04-01T11:46:03.445Z,10.20
2023-04-01T11:47:24.057Z,10.23
2023-04-01T11:48:38.164Z,9.13
2023-04-01T11:50:16.802Z,13.05
2023-04-01T11:51:47.200Z,9.55
2023-04-01T11:53:15.550Z,10.90
2023-04-01T11:54:17.705Z,9.23
2023-04-01T11:55:31.817Z,9.85
2023-04-01T11:56:51.281Z,11.45
2023-04-01T11:58:21.201Z,11.38
2023-04-01T11:59:47.735Z,10.67
2023-04-01T12:01:07.694Z,8.50
2023-04-01T12:02:37.082Z,9.82
2023-04-01T12:03:55.082Z,11.90
2023-04-01T12:05:03.076Z,10.23
2023-04-01T12:06:23.467Z,13.75
2023-04-01T12:07:45.928Z,10.32
2023-04-01T12:09:04.178Z,11.00
2023-04-01T12:10:34.067Z,10.55
2023-04-01T12:12:13.486Z,11.02
2023-04-01T12:13:27.561Z,11.50
2023-04-01T12:14:54.964Z,7.78
2023-04-01T12:16:18.232Z,10.45
2023-04-01T12:17:29.174Z,10.65
2023-04-01T12:19:06.380Z,11.02
2023-04-01T12:20:23.381Z,10.15
2023-04-01T12:21:52.106Z,10.95
2023-04-01T12:23:12.820Z,9.57
2023-04-01T12:24:43.008Z,9.75
2023-04-01T12:25:59.905Z,10.27
2023-04-01T12:27:20.010Z,14.43
2023-04-01T12:29:00.784Z,9.55
2023-04-01T12:30:40.410Z,10.63
2023-04-01T12:32:06.682Z,9.40
2023-04-01T12:33:29.512Z,12.77
2023-04-01T12:34:40.480Z,9.82
2023-04-01T12:36:20.250Z,8.00
2023-04-01T12:37:41.130Z,8.60
2023-04-01T12:39:13.710Z,9.63
2023-04-01T12:40:27.649Z,8.77
2023-04-01T12:41:35.727Z,10.10
2023-04-01T12:43:03.512Z,10.88
2023-04-01T12:44:43.125Z,7.72
2023-04-01T12:45:51.061Z,11.98
2023-04-01T12:47:02.219Z,9.93
2023-04-01T12:48:37.135Z,14.32
2023-04-01T12:50:01.481Z,9.45
2023-04-01T12:51:29.280Z,9.82
2023-04-01T12:53:35.050Z,9.23
2023-04-01T12:55:04.241Z,10.60
2023-04-01T12:56:15.810Z,8.70
2023-04-01T12:57:33.299Z,11.30
2023-04-01T12:59:03.434Z,9.35
2023-04-01T13:00:44.514Z,8.95
2023-04-01T13:02:15.052Z,12.07
2023-04-01T13:03:41.364Z,9.90
2023-04-01T13:04:57.443Z,13.93
2023-04-01T13:07:03.116Z,9.68
2023-04-01T13:08:24.371Z,7.75
2023-04-01T13:09:51.913Z,9.23
2023-04-01T13:11:17.492Z,9.93
2023-04-01T13:12:40.833Z,8.00
2023-04-01T13:14:04.337Z,8.88
2023-04-01T13:15:13.471Z,6.75
2023-04-01T13:16:39.975Z,8.50
2023-04-01T13:17:44.743Z,8.77
2023-04-01T13:19:11.632Z,7.90
2023-04-01T13:20:35.738Z,8.88
2023-04-01T13:22:08.518Z,9.57
2023-04-01T13:23:29.254Z,8.55
2023-04-01T13:25:05.717Z,9.93
2023-04-01T13:26:28.867Z,8.35
2023-04-01T13:28:00.351Z,7.15
2023-04-01T13:29:31.656Z,7.28
2023-04-01T13:30:46.846Z,9.10
2023-04-01T13:32:22.251Z,6.65
2023-04-01T13:33:48.622Z,8.38
2023-04-01T13:35:30.218Z,8.15
2023-04-01T13:36:54.111Z,6.82
2023-04-01T13:38:19.172Z,9.77
2023-04-01T13:39:42.915Z,9.67
2023-04-01T13:41:03.586Z,8.48
2023-04-01T13:42:12.593Z,9.23
2023-04-01T13:43:36.367Z,10.90
2023-04-01T13:44:48.028Z,13.43
2023-04-01T13:46:02.096Z,13.80
2023-04-01T13:47:37.657Z,9.65
2023-04-01T13:48:54.696Z,9.23
2023-04-01T13:50:36.396Z,10.60
2023-04-01T13:51:59.517Z,8.65
2023-04-01T13:53:25.600Z,12.03
2023-04-01T13:55:04.941Z,9.77
2023-04-01T13:56:55.523Z,10.45
2023-04-01T13:58:21.755Z,10.63
2023-04-01T13:59:52.148Z,12.32
2023-04-01T14:01:43.545Z,16.40
2023-04-01T14:02:57.645Z,12.60
2023-04-01T14:04:27.588Z,13.70
2023-04-01T14:05:43.199Z,11.52
2023-04-01T14:07:23.126Z,10.35
2023-04-01T14:08:49.587Z,13.27
2023-04-01T14:10:12.692Z,13.57
2023-04-01T14:11:46.450Z,12.32
2023-04-01T14:13:03.391Z,13.85
2023-04-01T14:14:39.092Z,13.20
2023-04-01T14:16:00.456Z,11.93
2023-04-01T14:17:19.052Z,10.93
2023-04-01T14:18:42.533Z,15.88
2023-04-01T14:19:56.405Z,11.32
2023-04-01T14:21:12.873Z,16.27
2023-04-01T14:22:24.027Z,14.50
2023-04-01T14:23:49.525Z,14.10
2023-04-01T14:25:15.794Z,17.90
2023-04-01T14:27:06.360Z,12.07
2023-04-01T14:28:29.694Z,16.40
2023-04-01T14:29:48.171Z,16.50
2023-04-01T14:31:21.190Z,18.80
2023-04-01T14:32:31.774Z,15.68
2023-04-01T14:34:01.843Z,15.77
2023-04-01T14:35:24.600Z,13.98
2023-04-01T14:36:39.387Z,15.30
2023-04-01T14:38:18.481Z,14.90
2023-04-01T14:40:14.874Z,13.98
2023-04-01T14:41:45.572Z,16.88
2023-04-01T14:42:56.609Z,14.13
2023-04-01T14:44:20.701Z,17.17
2023-04-01T14:45:55.032Z,14.48
2023-04-01T14:47:25.108Z,17.80
2023-04-01T14:48:33.339Z,11.52
2023-04-01T14:49:43.127Z,14.38
2023-04-01T14:50:52.182Z,24.73
2023-04-01T14:51:55.347Z,29.42
2023-04-01T14:53:12.397Z,28.05
2023-04-01T14:54:24.061Z,31.75
2023-04-01T14:55:37.347Z,23.65
2023-04-01T14:56:51.569Z,29.27
2023-04-01T14:58:13.532Z,19.33
2023-04-01T14:59:21.961Z,23.88
2023-04-01T15:00:24.055Z,23.85
2023-04-01T15:01:49.179Z,21.98
2023-04-01T15:03:13.236Z,18.60
2023-04-01T15:04:15.493Z,17.80
2023-04-01T15:05:38.838Z,24.77
2023-04-01T15:07:11.518Z,20.38
2023-04-01T15:08:46.195Z,21.60
2023-04-01T15:09:48.266Z,20.83
2023-04-01T15:11:19.779Z,23.50
2023-04-01T15:13:01.603Z,20.17
2023-04-01T15:14:40.521Z,28.52
2023-04-01T15:16:06.945Z,27.15
2023-04-01T15:17:24.480Z,24.00
2023-04-01T15:18:45.133Z,22.27
2023-04-01T15:20:01.035Z,17.15
2023-04-01T15:21:29.214Z,18.80
2023-04-01T15:22:39.059Z,22.58
2023-04-01T15:23:56.218Z,17.63
2023-04-01T15:25:21.532Z,22.45
2023-04-01T15:26:32.186Z,15.63
2023-04-01T15:27:50.501Z,20.05
2023-04-01T15:29:29.600Z,14.00
2023-04-01T15:30:38.543Z,15.63
2023-04-01T15:31:47.343Z,13.35
2023-04-01T15:33:03.966Z,20.95
2023-04-01T15:34:27.252Z,15.82
2023-04-01T15:35:48.527Z,19.67
2023-04-01T15:37:02.592Z,18.17
2023-04-01T15:38:29.628Z,16.77
2023-04-01T15:39:46.669Z,15.93
2023-04-01T15:40:55.568Z,21.63
2023-04-01T15:42:26.783Z,21.23
2023-04-01T15:43:49.924Z,18.80
2023-04-01T15:44:52.239Z,18.88
2023-04-01T15:46:19.384Z,20.40
2023-04-01T15:47:35.213Z,18.75
2023-04-01T15:49:04.506Z,16.95
2023-04-01T15:50:27.651Z,15.57
2023-04-01T15:51:32.623Z,15.60
2023-04-01T15:53:08.207Z,19.50
2023-04-01T15:54:25.179Z,20.52
2023-04-01T15:56:03.080Z,18.95
2023-04-01T15:57:28.298Z,16.87
2023-04-01T15:58:35.854Z,13.73
2023-04-01T16:00:06.224Z,19.95
2023-04-01T16:01:25.767Z,17.50
2023-04-01T16:03:05.822Z,17.70
2023-04-01T16:04:45.690Z,15.35
2023-04-01T16:05:53.637Z,18.63
2023-04-01T16:07:29.725Z,21.75
2023-04-01T16:08:43.813Z,17.15
2023-04-01T16:09:54.853Z,17.70
2023-04-01T16:11:30.431Z,17.00
2023-04-01T16:12:52.726Z,18.55
2023-04-01T16:14:09.243Z,17.85
2023-04-01T16:15:30.823Z,16.05
2023-04-01T16:16:35.813Z,17.70
2023-04-01T16:18:05.780Z,18.60
2023-04-01T16:19:14.193Z,16.80
2023-04-01T16:20:21.637Z,18.40
2023-04-01T16:21:39.227Z,20.95
2023-04-01T16:22:57.783Z,13.95
2023-04-01T16:24:21.259Z,17.37
2023-04-01T16:25:48.469Z,25.27
2023-04-01T16:27:10.448Z,15.20
2023-04-01T16:28:25.818Z,17.77
2023-04-01T16:29:32.347Z,16.75
2023-04-01T16:30:37.623Z,21.00
2023-04-01T16:31:52.043Z,18.48
2023-04-01T16:33:08.880Z,15.75
2023-04-01T16:34:31.556Z,15.13
2023-04-01T16:35:57.026Z,14.13
2023-04-01T16:37:30.374Z,12.63
2023-04-01T16:38:51.772Z,13.68
2023-04-01T16:40:17.268Z,17.13
2023-04-01T16:41:43.168Z,17.70
2023-04-01T16:43:12.749Z,14.90
2023-04-01T16:44:22.969Z,16.50
2023-04-01T16:46:00.310Z,17.52
2023-04-01T16:47:12.990Z,13.52
2023-04-01T16:48:21.583Z,17.60
2023-04-01T16:49:38.565Z,14.65
2023-04-01T16:50:51.461Z,18.40
2023-04-01T16:52:19.489Z,19.48
2023-04-01T16:53:44.850Z,20.25
2023-04-01T16:55:21.062Z,14.60
2023-04-01T16:56:25.643Z,14.25
2023-04-01T16:57:51.488Z,20.13
2023-04-01T16:58:56.692Z,20.15
2023-04-01T17:00:39.436Z,18.85
2023-04-01T17:01:49.143Z,18.05
2023-04-01T17:03:04.655Z,20.55
2023-04-01T17:04:38.759Z,22.40
2023-04-01T17:05:59.832Z,22.27
2023-04-01T17:07:32.646Z,20.35
2023-04-01T17:08:34.776Z,19.23
2023-04-01T17:10:04.826Z,19.02
2023-04-01T17:11:18.546Z,16.02
2023-04-01T17:12:32.377Z,21.10
2023-04-01T17:13:47.258Z,22.50
2023-04-01T17:15:22.040Z,27.30
2023-04-01T17:16:37.114Z,22.83
2023-04-01T17:18:03.253Z,21.47
2023-04-01T17:19:35.832Z,15.48
2023-04-01T17:21:01.339Z,21.27
2023-04-01T17:22:15.197Z,17.10
2023-04-01T17:23:28.913Z,19.50
2023-04-01T17:24:51.308Z,25.10